createdAt,value
2022-12-08T00:00:09.855Z,2.48
2022-12-08T00:03:01.158Z,2.48
2022-12-08T00:05:49.054Z,2.49
2022-12-08T00:08:35.791Z,2.50
2022-12-08T00:11:04.418Z,2.51
2022-12-08T00:13:33.090Z,2.53
2022-12-08T00:16:01.789Z,2.56
2022-12-08T00:18:30.439Z,2.58
2022-12-08T00:20:59.880Z,2.60
2022-12-08T00:23:28.451Z,2.60
2022-12-08T00:26:01.053Z,2.61
2022-12-08T00:28:29.622Z,2.59
2022-12-08T00:30:58.355Z,2.55
2022-12-08T00:33:28.135Z,2.51
2022-12-08T00:35:56.709Z,2.50
2022-12-08T00:38:25.546Z,2.51
2022-12-08T00:40:54.278Z,2.55
2022-12-08T00:43:22.843Z,2.56
2022-12-08T00:45:51.568Z,2.58
2022-12-08T00:48:20.189Z,2.59
2022-12-08T00:50:48.801Z,2.61
2022-12-08T00:53:17.325Z,2.63
2022-12-08T00:55:45.841Z,2.65
2022-12-08T00:58:14.472Z,2.68
2022-12-08T01:00:43.758Z,2.70
2022-12-08T01:03:13.171Z,2.72
2022-12-08T01:05:41.729Z,2.73
2022-12-08T01:08:10.355Z,2.75
2022-12-08T01:10:40.115Z,2.77
2022-12-08T01:13:08.686Z,2.79
2022-12-08T01:15:38.217Z,2.77
2022-12-08T01:18:06.902Z,2.77
2022-12-08T01:20:35.521Z,2.77
2022-12-08T01:23:04.142Z,2.77
2022-12-08T01:25:35.167Z,2.75
2022-12-08T01:28:03.993Z,2.75
2022-12-08T01:30:32.694Z,2.74
2022-12-08T01:33:02.184Z,2.74
2022-12-08T01:35:31.391Z,2.72
2022-12-08T01:38:00.082Z,2.73
2022-12-08T01:40:28.642Z,2.74
2022-12-08T01:42:57.397Z,2.76
2022-12-08T01:45:28.347Z,2.79
2022-12-08T01:48:00.256Z,2.82
2022-12-08T01:50:30.328Z,2.84
2022-12-08T01:53:01.957Z,2.85
2022-12-08T01:55:36.732Z,2.87
2022-12-08T01:58:12.976Z,2.89
2022-12-08T02:00:41.803Z,2.90
2022-12-08T02:03:14.265Z,2.91
2022-12-08T02:05:43.684Z,2.93
2022-12-08T02:08:14.786Z,2.93
2022-12-08T02:10:44.123Z,2.87
2022-12-08T02:13:16.254Z,2.83
2022-12-08T02:15:48.912Z,2.84
2022-12-08T02:18:24.260Z,2.82
2022-12-08T02:20:59.018Z,2.81
2022-12-08T02:23:32.664Z,2.75
2022-12-08T02:26:18.149Z,2.67
2022-12-08T02:28:58.607Z,2.54
2022-12-08T02:31:34.695Z,2.44
2022-12-08T02:34:12.544Z,2.34
2022-12-08T02:36:45.298Z,2.27
2022-12-08T02:39:21.211Z,2.22
2022-12-08T02:41:51.994Z,2.21
2022-12-08T02:44:24.015Z,2.16
2022-12-08T02:46:53.323Z,2.12
2022-12-08T02:49:20.947Z,2.10
2022-12-08T02:51:48.785Z,2.06
2022-12-08T02:54:16.877Z,2.05
2022-12-08T02:56:52.872Z,2.06
2022-12-08T02:59:25.664Z,2.06
2022-12-08T03:02:02.017Z,2.03
2022-12-08T03:04:35.372Z,1.97
2022-12-08T03:07:06.152Z,1.93
2022-12-08T03:09:36.125Z,1.92
2022-12-08T03:12:06.578Z,1.90
2022-12-08T03:14:34.591Z,1.90
2022-12-08T03:17:03.810Z,1.91
2022-12-08T03:19:34.292Z,1.92
2022-12-08T03:22:03.969Z,1.92
2022-12-08T03:24:33.113Z,1.90
2022-12-08T03:27:02.571Z,1.91
2022-12-08T03:29:30.392Z,1.92
2022-12-08T03:32:01.895Z,1.92
2022-12-08T03:34:30.249Z,1.94
2022-12-08T03:36:59.867Z,1.96
2022-12-08T03:39:27.529Z,1.99
2022-12-08T03:41:55.140Z,2.02
2022-12-08T03:44:22.738Z,2.05
2022-12-08T03:46:50.433Z,2.07
2022-12-08T03:49:18.084Z,2.11
2022-12-08T03:51:45.821Z,2.14
2022-12-08T03:54:13.638Z,2.16
2022-12-08T03:56:41.326Z,2.16
2022-12-08T03:59:10.196Z,2.14
2022-12-08T04:01:38.287Z,2.10
2022-12-08T04:04:06.091Z,2.06
2022-12-08T04:06:33.945Z,2.02
2022-12-08T04:09:01.636Z,2.03
2022-12-08T04:11:29.355Z,2.06
2022-12-08T04:13:57.124Z,2.07
2022-12-08T04:16:25.975Z,2.07
2022-12-08T04:18:53.890Z,2.04
2022-12-08T04:21:21.967Z,2.04
2022-12-08T04:23:49.714Z,2.02
2022-12-08T04:26:17.724Z,1.99
2022-12-08T04:28:45.513Z,1.95
2022-12-08T04:31:13.288Z,1.94
2022-12-08T04:33:41.001Z,1.94
2022-12-08T04:36:09.456Z,1.94
2022-12-08T04:38:37.536Z,1.91
2022-12-08T04:41:05.317Z,1.90
2022-12-08T04:43:33.060Z,1.91
2022-12-08T04:46:00.653Z,1.93
2022-12-08T04:48:28.374Z,1.95
2022-12-08T04:50:56.484Z,1.96
2022-12-08T04:53:26.028Z,1.97
2022-12-08T04:55:53.749Z,1.96
2022-12-08T04:58:21.531Z,1.94
2022-12-08T05:00:49.343Z,1.93
2022-12-08T05:03:17.491Z,1.95
2022-12-08T05:05:46.015Z,1.98
2022-12-08T05:08:13.800Z,2.02
2022-12-08T05:10:41.555Z,2.04
2022-12-08T05:13:09.276Z,2.06
2022-12-08T05:15:37.030Z,2.08
2022-12-08T05:18:05.761Z,2.08
2022-12-08T05:20:33.629Z,2.10
2022-12-08T05:23:01.465Z,2.12
2022-12-08T05:25:29.157Z,2.13
2022-12-08T05:28:17.551Z,2.11
2022-12-08T05:30:44.892Z,2.09
2022-12-08T05:33:12.717Z,2.06
2022-12-08T05:35:40.564Z,2.04
2022-12-08T05:38:08.243Z,2.02
2022-12-08T05:40:36.744Z,2.01
2022-12-08T05:43:04.439Z,2.01
2022-12-08T05:45:32.383Z,2.00
2022-12-08T05:48:00.183Z,1.97
2022-12-08T05:50:27.881Z,1.96
2022-12-08T05:52:56.105Z,1.95
2022-12-08T05:55:23.874Z,1.94
2022-12-08T05:57:51.533Z,1.93
2022-12-08T06:00:20.592Z,1.94
2022-12-08T06:02:48.582Z,1.94
2022-12-08T06:05:16.553Z,1.94
2022-12-08T06:07:44.506Z,1.91
2022-12-08T06:10:12.761Z,1.89
2022-12-08T06:12:40.574Z,1.89
2022-12-08T06:15:08.751Z,1.89
2022-12-08T06:17:37.783Z,1.89
2022-12-08T06:20:08.560Z,1.89
2022-12-08T06:22:36.739Z,1.88
2022-12-08T06:25:09.549Z,1.88
2022-12-08T06:27:38.020Z,1.88
2022-12-08T06:30:07.220Z,1.89
2022-12-08T06:32:35.773Z,1.89
2022-12-08T06:35:03.547Z,1.92
2022-12-08T06:37:31.226Z,1.93
2022-12-08T06:39:59.027Z,1.93
2022-12-08T06:42:46.179Z,1.94
2022-12-08T06:45:14.659Z,1.96
2022-12-08T06:47:42.501Z,1.97
2022-12-08T06:50:11.719Z,1.97
2022-12-08T06:52:51.777Z,1.96
2022-12-08T06:55:50.609Z,1.97
2022-12-08T06:58:11.997Z,2.00
2022-12-08T07:00:39.868Z,2.01
2022-12-08T07:03:08.041Z,2.04
2022-12-08T07:05:38.390Z,2.06
2022-12-08T07:08:07.433Z,2.08
2022-12-08T07:10:35.509Z,2.09
2022-12-08T07:13:03.200Z,2.08
2022-12-08T07:16:13.297Z,2.07
2022-12-08T07:18:45.440Z,2.03
2022-12-08T07:21:18.241Z,2.03
2022-12-08T07:23:57.424Z,2.03
2022-12-08T07:26:30.214Z,2.05
2022-12-08T07:29:02.848Z,2.06
2022-12-08T07:31:35.221Z,2.05
2022-12-08T07:34:07.455Z,2.07
2022-12-08T07:36:39.665Z,2.07
2022-12-08T07:39:10.709Z,2.07
2022-12-08T07:41:43.028Z,2.09
2022-12-08T07:44:13.632Z,2.12
2022-12-08T07:46:46.058Z,2.15
2022-12-08T07:49:18.343Z,2.20
2022-12-08T07:51:48.762Z,2.25
2022-12-08T07:54:21.025Z,2.28
2022-12-08T07:56:51.568Z,2.32
2022-12-08T07:59:23.766Z,2.32
2022-12-08T08:02:13.520Z,2.32
2022-12-08T08:04:50.718Z,2.32
2022-12-08T08:07:22.846Z,2.35
2022-12-08T08:09:55.169Z,2.37
2022-12-08T08:12:32.024Z,2.38
2022-12-08T08:15:07.470Z,2.40
2022-12-08T08:17:40.411Z,2.44
2022-12-08T08:20:14.571Z,2.45
2022-12-08T08:22:50.213Z,2.49
2022-12-08T08:25:23.625Z,2.54
2022-12-08T08:27:56.842Z,2.54
2022-12-08T08:30:33.225Z,2.52
2022-12-08T08:33:05.614Z,2.52
2022-12-08T08:35:38.699Z,2.50
2022-12-08T08:38:10.748Z,2.50
2022-12-08T08:40:43.014Z,2.49
2022-12-08T08:43:34.294Z,2.50
2022-12-08T08:46:11.226Z,2.49
2022-12-08T08:48:43.451Z,2.52
2022-12-08T08:51:16.723Z,2.60
2022-12-08T08:53:48.899Z,2.64
2022-12-08T08:56:21.858Z,2.66
2022-12-08T08:58:55.140Z,2.69
2022-12-08T09:01:28.994Z,2.74
2022-12-08T09:04:01.461Z,2.79
2022-12-08T09:06:33.768Z,2.85
2022-12-08T09:09:04.279Z,2.96
2022-12-08T09:11:36.390Z,3.06
2022-12-08T09:14:07.223Z,3.14
2022-12-08T09:16:42.339Z,3.15
2022-12-08T09:19:15.151Z,3.15
2022-12-08T09:21:47.491Z,3.22
2022-12-08T09:24:18.004Z,3.34
2022-12-08T09:26:50.616Z,3.39
2022-12-08T09:29:22.788Z,3.40
2022-12-08T09:31:56.486Z,3.43
2022-12-08T09:34:28.725Z,3.50
2022-12-08T09:36:59.352Z,3.55
2022-12-08T09:39:31.638Z,3.55
2022-12-08T09:42:03.071Z,3.57
2022-12-08T09:44:57.287Z,3.54
2022-12-08T09:47:36.082Z,3.52
2022-12-08T09:50:13.534Z,3.50
2022-12-08T09:52:48.990Z,3.50
2022-12-08T09:55:45.327Z,3.49
2022-12-08T09:58:26.909Z,3.49
2022-12-08T10:00:59.301Z,3.51
2022-12-08T10:03:32.892Z,3.51
2022-12-08T10:06:09.273Z,3.65
2022-12-08T10:08:49.246Z,3.92
2022-12-08T10:11:30.519Z,4.17
2022-12-08T10:14:15.750Z,4.30
2022-12-08T10:16:53.426Z,4.36
2022-12-08T10:19:28.689Z,4.41
2022-12-08T10:22:01.074Z,4.43
2022-12-08T10:24:40.837Z,4.38
2022-12-08T10:27:15.000Z,4.32
2022-12-08T10:29:47.241Z,4.26
2022-12-08T10:32:23.597Z,4.28
2022-12-08T10:35:08.607Z,4.30
2022-12-08T10:37:41.201Z,4.31
2022-12-08T10:40:18.044Z,4.32
2022-12-08T10:42:53.435Z,4.31
2022-12-08T10:45:29.490Z,4.29
2022-12-08T10:48:04.874Z,4.31
2022-12-08T10:50:43.043Z,4.33
2022-12-08T10:53:20.928Z,4.32
2022-12-08T10:56:06.293Z,4.32
2022-12-08T10:58:40.936Z,4.30
2022-12-08T11:01:18.102Z,4.28
2022-12-08T11:03:53.058Z,4.26
2022-12-08T11:06:35.461Z,4.21
2022-12-08T11:09:07.815Z,4.16
2022-12-08T11:11:49.381Z,4.12
2022-12-08T11:14:24.871Z,4.06
2022-12-08T11:17:04.654Z,4.03
2022-12-08T11:19:40.450Z,4.02
2022-12-08T11:22:25.995Z,4.01
2022-12-08T11:25:04.103Z,4.03
2022-12-08T11:27:38.216Z,4.05
2022-12-08T11:30:18.154Z,4.05
2022-12-08T11:32:55.889Z,4.07
2022-12-08T11:35:31.488Z,4.11
2022-12-08T11:38:21.008Z,4.12
2022-12-08T11:40:57.027Z,4.14
2022-12-08T11:43:37.645Z,4.14
2022-12-08T11:46:17.247Z,4.17
2022-12-08T11:48:54.529Z,4.19
2022-12-08T11:51:33.366Z,4.23
2022-12-08T11:54:19.062Z,4.28
2022-12-08T11:56:54.130Z,4.32
2022-12-08T11:59:30.704Z,4.35
2022-12-08T12:02:05.469Z,4.39
2022-12-08T12:04:45.755Z,4.42
2022-12-08T12:07:41.715Z,4.46
2022-12-08T12:10:28.219Z,4.50
2022-12-08T12:13:13.762Z,4.54
2022-12-08T12:16:19.911Z,4.57
2022-12-08T12:18:56.615Z,4.57
2022-12-08T12:21:34.883Z,4.56
2022-12-08T12:24:11.569Z,4.57
2022-12-08T12:26:57.090Z,4.57
2022-12-08T12:29:32.113Z,4.53
2022-12-08T12:32:07.421Z,4.49
2022-12-08T12:34:49.932Z,4.47
2022-12-08T12:37:25.749Z,4.43
2022-12-08T12:40:05.305Z,4.43
2022-12-08T12:42:50.723Z,4.41
2022-12-08T12:45:33.322Z,4.40
2022-12-08T12:48:25.120Z,4.38
2022-12-08T12:50:57.379Z,4.35
2022-12-08T12:53:45.144Z,4.32
2022-12-08T12:56:54.075Z,4.27
2022-12-08T12:59:43.668Z,4.22
2022-12-08T13:02:25.809Z,4.14
2022-12-08T13:05:13.149Z,4.10
2022-12-08T13:07:50.948Z,4.06
2022-12-08T13:10:26.495Z,4.03
2022-12-08T13:13:09.118Z,4.01
2022-12-08T13:15:48.832Z,3.99
2022-12-08T13:18:26.170Z,3.98
2022-12-08T13:21:05.761Z,3.96
2022-12-08T13:23:49.542Z,3.96
2022-12-08T13:26:24.073Z,3.96
2022-12-08T13:29:18.025Z,3.95
2022-12-08T13:31:52.627Z,3.93
2022-12-08T13:34:31.340Z,3.92
2022-12-08T13:37:19.983Z,3.88
2022-12-08T13:39:56.419Z,3.83
2022-12-08T13:42:41.965Z,3.78
2022-12-08T13:48:35.335Z,3.68
2022-12-08T13:57:28.865Z,3.48
2022-12-08T14:00:05.940Z,3.42
2022-12-08T14:02:48.104Z,3.35
2022-12-08T14:05:47.486Z,3.29
2022-12-08T14:08:57.467Z,3.24
2022-12-08T14:11:37.007Z,3.18
2022-12-08T14:14:27.224Z,3.14
2022-12-08T14:17:07.170Z,3.10
2022-12-08T14:19:39.829Z,3.06
2022-12-08T14:22:16.593Z,3.02
2022-12-08T14:24:51.622Z,2.97
2022-12-08T14:27:25.390Z,2.92
2022-12-08T14:30:01.321Z,2.89
2022-12-08T14:32:35.597Z,2.86
2022-12-08T14:35:23.531Z,2.84
2022-12-08T14:37:58.711Z,2.81
2022-12-08T14:40:34.942Z,2.78
2022-12-08T14:43:18.775Z,2.76
2022-12-08T14:45:53.647Z,2.73
2022-12-08T14:48:29.084Z,2.71
2022-12-08T14:51:08.867Z,2.69
2022-12-08T14:53:43.588Z,2.66
2022-12-08T14:56:23.807Z,2.63
2022-12-08T14:59:07.849Z,2.61
2022-12-08T15:01:41.188Z,2.58
2022-12-08T15:04:20.272Z,2.55
2022-12-08T15:07:01.373Z,2.53
2022-12-08T15:09:37.447Z,2.51
2022-12-08T15:12:26.624Z,2.48
2022-12-08T15:15:03.427Z,2.45
2022-12-08T15:17:43.661Z,2.42
2022-12-08T15:20:35.621Z,2.39
2022-12-08T15:23:12.995Z,2.36
2022-12-08T15:25:45.823Z,2.34
2022-12-08T15:28:22.054Z,2.31
2022-12-08T15:30:57.146Z,2.29
2022-12-08T15:33:29.956Z,2.27
2022-12-08T15:36:02.126Z,2.24
2022-12-08T15:38:35.213Z,2.25
2022-12-08T15:41:13.038Z,2.23
2022-12-08T15:43:47.016Z,2.20
2022-12-08T15:46:18.920Z,2.18
2022-12-08T15:48:57.796Z,2.14
2022-12-08T15:51:37.048Z,2.11
2022-12-08T15:54:09.763Z,2.08
2022-12-08T15:57:10.594Z,2.05
2022-12-08T15:59:39.029Z,2.03
2022-12-08T16:02:16.641Z,2.00
2022-12-08T16:07:44.623Z,1.94
2022-12-08T16:10:21.068Z,1.92
2022-12-08T16:13:55.529Z,1.89
2022-12-08T16:16:04.036Z,1.87
2022-12-08T16:18:40.109Z,1.87
2022-12-08T16:21:31.528Z,1.88
2022-12-08T16:24:09.393Z,1.88
2022-12-08T16:29:34.459Z,1.86
2022-12-08T16:32:07.015Z,1.83
2022-12-08T16:34:39.132Z,1.83
2022-12-08T16:37:15.238Z,1.82
2022-12-08T16:39:50.197Z,1.82
2022-12-08T16:42:43.740Z,1.80
2022-12-08T16:45:19.385Z,1.78
2022-12-08T16:47:53.438Z,1.76
2022-12-08T16:50:27.792Z,1.75
2022-12-08T16:53:01.942Z,1.73
2022-12-08T16:55:34.674Z,1.71
2022-12-08T16:58:07.238Z,1.68
2022-12-08T17:00:39.463Z,1.68
2022-12-08T17:03:10.064Z,1.68
2022-12-08T17:05:45.021Z,1.65
2022-12-08T17:08:17.561Z,1.65
2022-12-08T17:11:07.436Z,1.64
2022-12-08T17:13:41.773Z,1.64
2022-12-08T17:16:17.781Z,1.63
2022-12-08T17:18:50.557Z,1.61
2022-12-08T17:21:23.018Z,1.60
2022-12-08T17:23:55.089Z,1.58
2022-12-08T17:26:27.261Z,1.56
2022-12-08T17:29:01.418Z,1.55
2022-12-08T17:31:34.835Z,1.53
2022-12-08T17:34:10.272Z,1.53
2022-12-08T17:36:42.622Z,1.50
2022-12-08T17:39:18.731Z,1.48
2022-12-08T17:41:51.445Z,1.46
2022-12-08T17:44:21.949Z,1.46
2022-12-08T17:46:54.136Z,1.42
2022-12-08T17:49:29.690Z,1.40
2022-12-08T17:52:03.777Z,1.41
2022-12-08T17:54:36.614Z,1.40
2022-12-08T17:57:09.062Z,1.40
2022-12-08T17:59:41.839Z,1.39
2022-12-08T18:02:14.203Z,1.41
2022-12-08T18:04:46.612Z,1.42
2022-12-08T18:07:18.801Z,1.44
2022-12-08T18:09:49.277Z,1.42
2022-12-08T18:12:23.819Z,1.40
2022-12-08T18:14:56.547Z,1.39
2022-12-08T18:17:27.198Z,1.38
2022-12-08T18:19:59.317Z,1.37
2022-12-08T18:22:31.447Z,1.37
2022-12-08T18:25:01.893Z,1.38
2022-12-08T18:27:37.382Z,1.37
2022-12-08T18:30:18.291Z,1.39
2022-12-08T18:32:54.286Z,1.40
2022-12-08T18:35:30.016Z,1.41
2022-12-08T18:38:02.658Z,1.40
2022-12-08T18:40:35.110Z,1.40
2022-12-08T18:43:07.787Z,1.42
2022-12-08T18:45:40.105Z,1.42
2022-12-08T18:48:14.735Z,1.43
2022-12-08T18:50:46.862Z,1.46
2022-12-08T18:53:17.652Z,1.47
2022-12-08T18:55:51.178Z,1.49
2022-12-08T18:58:23.439Z,1.50
2022-12-08T19:00:55.852Z,1.50
2022-12-08T19:03:28.175Z,1.50
2022-12-08T19:06:06.576Z,1.47
2022-12-08T19:08:38.968Z,1.45
2022-12-08T19:11:35.111Z,1.42
2022-12-08T19:14:07.872Z,1.40
2022-12-08T19:16:40.320Z,1.41
2022-12-08T19:19:13.533Z,1.41
2022-12-08T19:21:46.517Z,1.41
2022-12-08T19:24:19.386Z,1.41
2022-12-08T19:26:52.005Z,1.42
2022-12-08T19:29:24.032Z,1.43
2022-12-08T19:31:56.871Z,1.43
2022-12-08T19:34:29.359Z,1.43
2022-12-08T19:37:01.750Z,1.44
2022-12-08T19:39:51.594Z,1.44
2022-12-08T19:42:42.444Z,1.44
2022-12-08T19:45:18.186Z,1.43
2022-12-08T19:47:51.125Z,1.43
2022-12-08T19:50:39.435Z,1.42
2022-12-08T19:53:14.552Z,1.42
2022-12-08T19:55:49.082Z,1.42
2022-12-08T19:58:21.195Z,1.41
2022-12-08T20:00:51.797Z,1.39
2022-12-08T20:03:24.448Z,1.36
2022-12-08T20:05:56.658Z,1.35
2022-12-08T20:08:29.064Z,1.34
2022-12-08T20:13:48.772Z,1.30
2022-12-08T20:16:21.373Z,1.28
2022-12-08T20:18:54.804Z,1.22
2022-12-08T20:21:27.206Z,1.18
2022-12-08T20:23:59.913Z,1.15
2022-12-08T20:26:32.239Z,1.10
2022-12-08T20:29:05.291Z,1.08
2022-12-08T20:31:38.624Z,1.04
2022-12-08T20:34:16.366Z,1.02
2022-12-08T20:36:50.765Z,1.00
2022-12-08T20:39:27.491Z,0.97
2022-12-08T20:42:00.363Z,0.95
2022-12-08T20:44:33.334Z,0.94
2022-12-08T20:47:05.686Z,0.93
2022-12-08T20:49:38.666Z,0.90
2022-12-08T20:52:11.586Z,0.88
2022-12-08T20:54:43.930Z,0.85
2022-12-08T20:57:16.318Z,0.84
2022-12-08T20:59:48.620Z,0.82
2022-12-08T21:02:19.342Z,0.80
2022-12-08T21:04:51.971Z,0.79
2022-12-08T21:07:24.419Z,0.79
2022-12-08T21:09:56.677Z,0.79
2022-12-08T21:12:27.518Z,0.78
2022-12-08T21:14:59.885Z,0.78
2022-12-08T21:17:32.296Z,0.78
2022-12-08T21:20:05.481Z,0.78
2022-12-08T21:22:39.980Z,0.79
2022-12-08T21:25:12.906Z,0.80
2022-12-08T21:27:45.409Z,0.80
2022-12-08T21:30:19.070Z,0.79
2022-12-08T21:32:51.360Z,0.79
2022-12-08T21:35:23.735Z,0.78
2022-12-08T21:37:56.190Z,0.76
2022-12-08T21:40:27.108Z,0.74
2022-12-08T21:42:59.352Z,0.70
2022-12-08T21:45:29.882Z,0.68
2022-12-08T21:48:10.306Z,0.66
2022-12-08T21:50:43.646Z,0.64
2022-12-08T21:53:15.962Z,0.64
2022-12-08T21:55:48.384Z,0.64
2022-12-08T21:58:20.692Z,0.63
2022-12-08T22:00:52.916Z,0.63
2022-12-08T22:03:25.384Z,0.62
2022-12-08T22:05:58.254Z,0.61
2022-12-08T22:08:30.846Z,0.61
2022-12-08T22:11:03.163Z,0.59
2022-12-08T22:13:36.604Z,0.57
2022-12-08T22:16:11.514Z,0.56
2022-12-08T22:18:44.286Z,0.55
2022-12-08T22:21:18.784Z,0.55
2022-12-08T22:23:50.965Z,0.54
2022-12-08T22:26:21.610Z,0.53
2022-12-08T22:28:54.646Z,0.51
2022-12-08T22:31:27.823Z,0.51
2022-12-08T22:34:01.651Z,0.50
2022-12-08T22:36:34.443Z,0.49
2022-12-08T22:39:06.931Z,0.49
2022-12-08T22:41:39.124Z,0.48
2022-12-08T22:44:10.332Z,0.48
2022-12-08T22:46:42.790Z,0.46
2022-12-08T22:49:15.301Z,0.45
2022-12-08T22:51:47.905Z,0.46
2022-12-08T22:54:19.050Z,0.46
2022-12-08T22:56:51.502Z,0.45
2022-12-08T22:59:23.917Z,0.46
2022-12-08T23:01:56.062Z,0.46
2022-12-08T23:04:26.714Z,0.47
2022-12-08T23:06:58.943Z,0.43
2022-12-08T23:09:29.550Z,0.42
2022-12-08T23:12:01.760Z,0.38
2022-12-08T23:14:32.415Z,0.35
2022-12-08T23:17:04.563Z,0.31
2022-12-08T23:19:36.302Z,0.30
2022-12-08T23:22:08.485Z,0.26
2022-12-08T23:24:40.872Z,0.24
2022-12-08T23:27:12.931Z,0.24
2022-12-08T23:29:45.317Z,0.25
2022-12-08T23:32:17.564Z,0.26
2022-12-08T23:34:50.289Z,0.27
2022-12-08T23:37:22.778Z,0.29
2022-12-08T23:39:55.242Z,0.30
2022-12-08T23:42:27.501Z,0.30
2022-12-08T23:44:59.988Z,0.30
2022-12-08T23:47:32.444Z,0.30
2022-12-08T23:50:05.533Z,0.30
2022-12-08T23:52:39.817Z,0.31
2022-12-08T23:55:13.110Z,0.32
2022-12-08T23:57:45.477Z,0.31
